createdAt,value
2022-12-24T00:01:06.716Z,5.62
2022-12-24T00:03:35.104Z,5.62
2022-12-24T00:06:07.827Z,5.64
2022-12-24T00:08:35.320Z,5.61
2022-12-24T00:11:02.564Z,5.61
2022-12-24T00:13:29.352Z,5.56
2022-12-24T00:15:56.321Z,5.59
2022-12-24T00:18:23.155Z,5.58
2022-12-24T00:20:50.878Z,5.57
2022-12-24T00:23:18.592Z,5.56
2022-12-24T00:25:45.761Z,5.57
2022-12-24T00:28:13.667Z,5.51
2022-12-24T00:30:43.111Z,5.55
2022-12-24T00:33:10.728Z,5.54
2022-12-24T00:35:39.373Z,5.54
2022-12-24T00:38:08.058Z,5.52
2022-12-24T00:40:35.314Z,5.56
2022-12-24T00:43:02.099Z,5.54
2022-12-24T00:45:28.872Z,5.54
2022-12-24T00:47:55.868Z,5.52
2022-12-24T00:50:22.688Z,5.50
2022-12-24T00:52:49.452Z,5.47
2022-12-24T00:55:16.673Z,5.44
2022-12-24T00:57:43.480Z,5.44
2022-12-24T01:00:11.021Z,5.43
2022-12-24T01:02:38.119Z,5.45
2022-12-24T01:05:11.632Z,5.41
2022-12-24T01:07:44.528Z,5.42
2022-12-24T01:10:15.147Z,5.39
2022-12-24T01:12:42.992Z,5.36
2022-12-24T01:15:11.819Z,5.36
2022-12-24T01:17:39.597Z,5.35
2022-12-24T01:20:09.899Z,5.33
2022-12-24T01:22:36.850Z,5.34
2022-12-24T01:25:03.924Z,5.35
2022-12-24T01:27:31.283Z,5.37
2022-12-24T01:29:58.057Z,5.37
2022-12-24T01:32:24.918Z,5.37
2022-12-24T01:34:51.685Z,5.39
2022-12-24T01:37:18.485Z,5.38
2022-12-24T01:39:45.286Z,5.40
2022-12-24T01:42:38.523Z,5.40
2022-12-24T01:45:42.935Z,5.42
2022-12-24T01:48:45.952Z,5.46
2022-12-24T01:51:24.939Z,5.47
2022-12-24T01:54:01.411Z,5.46
2022-12-24T01:56:31.555Z,5.45
2022-12-24T01:59:07.063Z,5.41
2022-12-24T02:01:34.737Z,5.36
2022-12-24T02:04:12.815Z,5.28
2022-12-24T02:06:39.591Z,5.23
2022-12-24T02:09:07.468Z,5.18
2022-12-24T02:11:37.286Z,5.15
2022-12-24T02:14:04.591Z,5.06
2022-12-24T02:17:15.699Z,5.05
2022-12-24T02:20:46.886Z,5.01
2022-12-24T02:23:19.842Z,5.03
2022-12-24T02:26:14.622Z,5.05
2022-12-24T02:29:11.733Z,5.05
2022-12-24T02:31:46.531Z,5.04
2022-12-24T02:34:33.993Z,5.02
2022-12-24T02:37:17.597Z,5.02
2022-12-24T02:40:21.030Z,4.98
2022-12-24T02:43:08.804Z,4.95
2022-12-24T02:45:36.679Z,4.92
2022-12-24T02:48:03.964Z,4.86
2022-12-24T02:50:30.781Z,4.84
2022-12-24T02:52:57.654Z,4.81
2022-12-24T02:55:34.725Z,4.79
2022-12-24T02:58:42.295Z,4.78
2022-12-24T03:01:39.565Z,4.76
2022-12-24T03:04:41.812Z,4.70
2022-12-24T03:07:30.240Z,4.67
2022-12-24T03:10:12.541Z,4.64
2022-12-24T03:12:45.729Z,4.59
2022-12-24T03:15:17.035Z,4.60
2022-12-24T03:17:48.212Z,4.61
2022-12-24T03:20:21.989Z,4.60
2022-12-24T03:22:49.140Z,4.62
2022-12-24T03:25:17.226Z,4.61
2022-12-24T03:27:44.977Z,4.62
2022-12-24T03:30:14.652Z,4.63
2022-12-24T03:32:42.014Z,4.64
2022-12-24T03:35:10.137Z,4.61
2022-12-24T03:37:37.172Z,4.60
2022-12-24T03:40:06.402Z,4.58
2022-12-24T03:42:33.321Z,4.53
2022-12-24T03:45:00.198Z,4.52
2022-12-24T03:47:27.023Z,4.48
2022-12-24T03:49:53.884Z,4.46
2022-12-24T03:52:21.006Z,4.41
2022-12-24T03:54:47.981Z,4.35
2022-12-24T03:57:14.842Z,4.28
2022-12-24T03:59:41.776Z,4.22
2022-12-24T04:02:08.849Z,4.14
2022-12-24T04:04:37.879Z,4.09
2022-12-24T04:07:06.249Z,4.03
2022-12-24T04:09:33.515Z,3.94
2022-12-24T04:12:00.408Z,3.91
2022-12-24T04:14:27.237Z,3.85
2022-12-24T04:16:54.224Z,3.80
2022-12-24T04:19:21.160Z,3.74
2022-12-24T04:21:47.979Z,3.69
2022-12-24T04:24:14.802Z,3.66
2022-12-24T04:26:41.691Z,3.62
2022-12-24T04:29:08.740Z,3.60
2022-12-24T04:31:35.645Z,3.59
2022-12-24T04:34:02.537Z,3.57
2022-12-24T04:36:29.941Z,3.56
2022-12-24T04:38:56.773Z,3.56
2022-12-24T04:41:25.309Z,3.57
2022-12-24T04:43:54.816Z,3.59
2022-12-24T04:46:25.646Z,3.60
2022-12-24T04:48:54.612Z,3.62
2022-12-24T04:51:22.116Z,3.64
2022-12-24T04:53:49.819Z,3.66
2022-12-24T04:56:24.408Z,3.69
2022-12-24T04:58:52.181Z,3.69
2022-12-24T05:01:25.730Z,3.68
2022-12-24T05:03:53.193Z,3.66
2022-12-24T05:06:26.445Z,3.69
2022-12-24T05:08:58.089Z,3.67
2022-12-24T05:11:25.578Z,3.69
2022-12-24T05:13:52.717Z,3.70
2022-12-24T05:16:22.249Z,3.71
2022-12-24T05:18:49.183Z,3.74
2022-12-24T05:21:19.926Z,3.76
2022-12-24T05:24:05.683Z,3.76
2022-12-24T05:26:39.948Z,3.74
2022-12-24T05:29:09.233Z,3.77
2022-12-24T05:31:36.411Z,3.81
2022-12-24T05:34:04.008Z,3.83
2022-12-24T05:36:31.090Z,3.86
2022-12-24T05:38:58.246Z,3.87
2022-12-24T05:41:25.724Z,3.84
2022-12-24T05:43:52.639Z,3.86
2022-12-24T05:46:22.028Z,3.88
2022-12-24T05:48:50.526Z,3.85
2022-12-24T05:51:20.010Z,3.85
2022-12-24T05:53:47.998Z,3.84
2022-12-24T05:56:19.380Z,3.84
2022-12-24T05:58:46.613Z,3.82
2022-12-24T06:01:14.462Z,3.84
2022-12-24T06:03:41.951Z,3.88
2022-12-24T06:06:13.854Z,3.91
2022-12-24T06:08:42.454Z,3.95
2022-12-24T06:11:14.287Z,3.97
2022-12-24T06:13:42.694Z,3.99
2022-12-24T06:16:17.323Z,3.98
2022-12-24T06:18:44.847Z,3.97
2022-12-24T06:21:12.541Z,3.93
2022-12-24T06:23:42.736Z,3.90
2022-12-24T06:26:13.818Z,3.88
2022-12-24T06:28:41.231Z,3.88
2022-12-24T06:31:14.423Z,3.85
2022-12-24T06:33:41.654Z,3.85
2022-12-24T06:36:18.774Z,3.84
2022-12-24T06:38:47.449Z,3.88
2022-12-24T06:41:15.343Z,3.88
2022-12-24T06:43:48.088Z,3.87
2022-12-24T06:46:16.061Z,3.88
2022-12-24T06:48:45.621Z,3.88
2022-12-24T06:51:13.571Z,3.89
2022-12-24T06:53:41.299Z,3.87
2022-12-24T06:56:12.130Z,3.87
2022-12-24T06:58:41.156Z,3.86
2022-12-24T07:01:14.565Z,3.88
2022-12-24T07:03:42.601Z,3.84
2022-12-24T07:06:30.293Z,3.82
2022-12-24T07:08:57.588Z,3.84
2022-12-24T07:11:26.041Z,3.82
2022-12-24T07:13:53.096Z,3.78
2022-12-24T07:16:20.333Z,3.77
2022-12-24T07:18:48.206Z,3.76
2022-12-24T07:21:15.159Z,3.73
2022-12-24T07:23:42.023Z,3.70
2022-12-24T07:26:09.142Z,3.69
2022-12-24T07:28:36.154Z,3.67
2022-12-24T07:31:03.567Z,3.64
2022-12-24T07:33:30.698Z,3.61
2022-12-24T07:36:07.917Z,3.61
2022-12-24T07:38:35.485Z,3.60
2022-12-24T07:41:02.636Z,3.58
2022-12-24T07:43:29.503Z,3.58
2022-12-24T07:45:58.141Z,3.57
2022-12-24T07:48:27.994Z,3.55
2022-12-24T07:50:57.237Z,3.56
2022-12-24T07:53:25.580Z,3.57
2022-12-24T07:55:52.709Z,3.58
2022-12-24T07:58:20.195Z,3.58
2022-12-24T08:00:47.003Z,3.59
2022-12-24T08:03:21.519Z,3.57
2022-12-24T08:05:49.311Z,3.54
2022-12-24T08:08:16.165Z,3.57
2022-12-24T08:10:44.402Z,3.58
2022-12-24T08:13:11.256Z,3.61
2022-12-24T08:15:38.177Z,3.62
2022-12-24T08:18:05.223Z,3.60
2022-12-24T08:20:31.982Z,3.63
2022-12-24T08:22:58.774Z,3.65
2022-12-24T08:25:25.614Z,3.68
2022-12-24T08:27:52.445Z,3.71
2022-12-24T08:30:21.580Z,3.73
2022-12-24T08:32:48.976Z,3.74
2022-12-24T08:35:15.964Z,3.76
2022-12-24T08:37:42.894Z,3.75
2022-12-24T08:40:10.787Z,3.77
2022-12-24T08:42:37.651Z,3.80
2022-12-24T08:45:05.051Z,3.79
2022-12-24T08:47:31.844Z,3.84
2022-12-24T08:49:58.619Z,3.85
2022-12-24T08:52:25.425Z,3.83
2022-12-24T08:54:52.253Z,3.88
2022-12-24T08:57:20.321Z,3.87
2022-12-24T08:59:47.269Z,3.88
2022-12-24T09:02:14.560Z,3.89
2022-12-24T09:04:41.770Z,3.89
2022-12-24T09:07:09.843Z,3.93
2022-12-24T09:09:38.320Z,3.94
2022-12-24T09:12:09.006Z,3.95
2022-12-24T09:14:35.967Z,3.95
2022-12-24T09:17:02.852Z,3.96
2022-12-24T09:19:29.677Z,3.97
2022-12-24T09:21:56.519Z,3.99
2022-12-24T09:24:23.727Z,4.01
2022-12-24T09:26:57.292Z,4.03
2022-12-24T09:29:24.443Z,4.03
2022-12-24T09:31:51.742Z,4.07
2022-12-24T09:34:18.619Z,4.10
2022-12-24T09:36:46.700Z,4.15
2022-12-24T09:39:14.589Z,4.18
2022-12-24T09:42:05.701Z,4.20
2022-12-24T09:44:43.738Z,4.21
2022-12-24T09:47:22.696Z,4.26
2022-12-24T09:49:54.057Z,4.27
2022-12-24T09:52:34.558Z,4.29
2022-12-24T09:55:34.149Z,4.33
2022-12-24T09:58:05.342Z,4.38
2022-12-24T10:00:38.263Z,4.43
2022-12-24T10:03:18.643Z,4.44
2022-12-24T10:06:11.925Z,4.45
2022-12-24T10:08:44.571Z,4.53
2022-12-24T10:11:27.270Z,4.52
2022-12-24T10:14:18.833Z,4.54
2022-12-24T10:16:49.714Z,4.54
2022-12-24T10:19:37.821Z,4.55
2022-12-24T10:22:52.660Z,4.60
2022-12-24T10:25:32.288Z,4.63
2022-12-24T10:28:02.817Z,4.68
2022-12-24T10:30:30.107Z,4.71
2022-12-24T10:32:56.915Z,4.74
2022-12-24T10:35:30.068Z,4.75
2022-12-24T10:37:58.309Z,4.77
2022-12-24T10:40:32.720Z,4.82
2022-12-24T10:42:59.787Z,4.85
2022-12-24T10:45:38.181Z,4.92
2022-12-24T10:48:12.855Z,4.95
2022-12-24T10:51:15.877Z,4.97
2022-12-24T10:53:46.268Z,4.99
2022-12-24T10:56:17.952Z,5.03
2022-12-24T10:58:57.197Z,5.07
2022-12-24T11:01:45.656Z,5.13
2022-12-24T11:04:19.295Z,5.18
2022-12-24T11:07:03.960Z,5.22
2022-12-24T11:09:43.523Z,5.28
2022-12-24T11:12:24.015Z,5.34
2022-12-24T11:15:03.306Z,5.40
2022-12-24T11:17:30.610Z,5.43
2022-12-24T11:19:58.577Z,5.50
2022-12-24T11:22:29.893Z,5.51
2022-12-24T11:25:21.255Z,5.55
2022-12-24T11:27:51.746Z,5.59
2022-12-24T11:30:31.589Z,5.60
2022-12-24T11:33:01.419Z,5.65
2022-12-24T11:35:31.810Z,5.71
2022-12-24T11:38:01.558Z,5.73
2022-12-24T11:40:42.581Z,5.76
2022-12-24T11:43:18.492Z,5.84
2022-12-24T11:45:57.155Z,5.87
2022-12-24T11:48:34.894Z,5.90
2022-12-24T11:51:04.910Z,5.93
2022-12-24T11:54:23.254Z,5.94
2022-12-24T11:56:55.386Z,5.98
2022-12-24T11:59:38.658Z,5.98
2022-12-24T12:02:33.731Z,6.00
2022-12-24T12:05:12.272Z,6.02
2022-12-24T12:07:39.651Z,6.05
2022-12-24T12:10:18.392Z,6.08
2022-12-24T12:12:56.991Z,6.09
2022-12-24T12:15:33.016Z,6.13
2022-12-24T12:18:18.115Z,6.16
2022-12-24T12:21:04.215Z,6.21
2022-12-24T12:23:36.616Z,6.26
2022-12-24T12:26:24.713Z,6.31
2022-12-24T12:29:13.112Z,6.30
2022-12-24T12:31:46.031Z,6.38
2022-12-24T12:34:22.214Z,6.38
2022-12-24T12:36:54.691Z,6.37
2022-12-24T12:39:21.484Z,6.39
2022-12-24T12:42:16.317Z,6.43
2022-12-24T12:45:00.016Z,6.46
2022-12-24T12:48:03.925Z,6.52
2022-12-24T12:51:16.086Z,6.58
2022-12-24T12:54:00.839Z,6.63
2022-12-24T12:56:36.998Z,6.70
2022-12-24T12:59:32.169Z,6.72
2022-12-24T13:02:18.015Z,6.74
2022-12-24T13:05:36.627Z,6.72
2022-12-24T13:08:47.705Z,6.72
2022-12-24T13:11:42.445Z,6.70
2022-12-24T13:14:33.908Z,6.67
2022-12-24T13:17:40.956Z,6.65
2022-12-24T13:20:32.268Z,6.61
2022-12-24T13:23:03.526Z,6.60
2022-12-24T13:25:39.447Z,6.60
2022-12-24T13:28:24.540Z,6.58
2022-12-24T13:31:02.118Z,6.61
2022-12-24T13:33:38.397Z,6.60
2022-12-24T13:36:17.188Z,6.64
2022-12-24T13:39:04.209Z,6.65
2022-12-24T13:41:39.988Z,6.67
2022-12-24T13:44:07.803Z,6.68
2022-12-24T13:46:56.757Z,6.68
2022-12-24T13:49:38.699Z,6.71
2022-12-24T13:52:21.982Z,6.71
2022-12-24T13:54:54.754Z,6.73
2022-12-24T13:57:36.055Z,6.74
2022-12-24T14:00:23.072Z,6.74
2022-12-24T14:03:19.824Z,6.76
2022-12-24T14:05:56.018Z,6.77
2022-12-24T14:08:27.976Z,6.75
2022-12-24T14:11:06.053Z,6.77
2022-12-24T14:13:38.816Z,6.80
2022-12-24T14:16:24.425Z,6.78
2022-12-24T14:19:04.009Z,6.77
2022-12-24T14:21:40.294Z,6.81
2022-12-24T14:24:23.280Z,6.81
2022-12-24T14:27:20.093Z,6.83
2022-12-24T14:30:05.334Z,6.82
2022-12-24T14:32:40.140Z,6.81
2022-12-24T14:35:22.350Z,6.86
2022-12-24T14:37:56.890Z,6.86
2022-12-24T14:40:28.841Z,6.84
2022-12-24T14:43:06.933Z,6.85
2022-12-24T14:45:49.177Z,6.86
2022-12-24T14:48:27.151Z,6.87
2022-12-24T14:51:05.333Z,6.83
2022-12-24T14:54:06.108Z,6.85
2022-12-24T14:56:33.367Z,6.85
2022-12-24T14:59:05.008Z,6.81
2022-12-24T15:01:36.348Z,6.83
2022-12-24T15:04:21.212Z,6.82
2022-12-24T15:06:53.322Z,6.82
2022-12-24T15:09:22.042Z,6.81
2022-12-24T15:11:52.992Z,6.77
2022-12-24T15:14:22.317Z,6.79
2022-12-24T15:16:56.851Z,6.76
2022-12-24T15:19:33.880Z,6.73
2022-12-24T15:22:03.427Z,6.72
2022-12-24T15:24:37.076Z,6.70
2022-12-24T15:27:16.666Z,6.68
2022-12-24T15:29:47.249Z,6.67
2022-12-24T15:32:17.263Z,6.66
2022-12-24T15:34:47.827Z,6.64
2022-12-24T15:37:31.877Z,6.60
2022-12-24T15:40:22.618Z,6.56
2022-12-24T15:42:50.011Z,6.56
2022-12-24T15:45:30.764Z,6.52
2022-12-24T15:48:02.137Z,6.49
2022-12-24T15:50:34.431Z,6.48
2022-12-24T15:53:31.021Z,6.39
2022-12-24T15:56:11.681Z,6.40
2022-12-24T15:58:44.989Z,6.38
2022-12-24T16:01:17.766Z,6.36
2022-12-24T16:03:50.830Z,6.34
2022-12-24T16:06:18.825Z,6.31
2022-12-24T16:08:46.821Z,6.32
2022-12-24T16:11:34.771Z,6.29
2022-12-24T16:14:12.461Z,6.27
2022-12-24T16:16:42.972Z,6.24
2022-12-24T16:19:40.471Z,6.22
2022-12-24T16:22:26.320Z,6.20
2022-12-24T16:24:55.717Z,6.19
2022-12-24T16:27:22.772Z,6.16
2022-12-24T16:29:50.474Z,6.15
2022-12-24T16:32:35.061Z,6.11
2022-12-24T16:35:05.405Z,6.12
2022-12-24T16:37:32.328Z,6.10
2022-12-24T16:39:59.257Z,6.11
2022-12-24T16:42:44.958Z,6.11
2022-12-24T16:45:11.905Z,6.12
2022-12-24T16:47:43.167Z,6.15
2022-12-24T16:50:17.216Z,6.13
2022-12-24T16:52:44.212Z,6.16
2022-12-24T16:55:14.434Z,6.15
2022-12-24T16:57:43.382Z,6.16
2022-12-24T17:00:20.893Z,6.14
2022-12-24T17:02:49.803Z,6.18
2022-12-24T17:05:17.117Z,6.20
2022-12-24T17:07:44.479Z,6.22
2022-12-24T17:10:14.933Z,6.21
2022-12-24T17:12:42.966Z,6.23
2022-12-24T17:15:10.706Z,6.24
2022-12-24T17:17:37.973Z,6.25
2022-12-24T17:20:05.907Z,6.27
2022-12-24T17:22:32.755Z,6.27
2022-12-24T17:24:59.630Z,6.27
2022-12-24T17:27:26.432Z,6.29
2022-12-24T17:29:53.366Z,6.30
2022-12-24T17:32:20.464Z,6.29
2022-12-24T17:34:47.282Z,6.30
2022-12-24T17:37:14.113Z,6.28
2022-12-24T17:39:41.253Z,6.27
2022-12-24T17:42:08.218Z,6.28
2022-12-24T17:44:35.411Z,6.29
2022-12-24T17:47:05.412Z,6.29
2022-12-24T17:49:32.530Z,6.30
2022-12-24T17:51:59.597Z,6.33
2022-12-24T17:54:26.597Z,6.34
2022-12-24T17:56:53.391Z,6.36
2022-12-24T17:59:20.216Z,6.38
2022-12-24T18:01:47.110Z,6.39
2022-12-24T18:04:14.451Z,6.41
2022-12-24T18:06:47.236Z,6.43
2022-12-24T18:09:15.961Z,6.48
2022-12-24T18:11:42.839Z,6.51
2022-12-24T18:14:14.184Z,6.53
2022-12-24T18:16:42.637Z,6.55
2022-12-24T18:19:12.190Z,6.54
2022-12-24T18:21:40.548Z,6.56
2022-12-24T18:24:09.337Z,6.56
2022-12-24T18:26:36.770Z,6.58
2022-12-24T18:29:08.919Z,6.56
2022-12-24T18:31:36.783Z,6.57
2022-12-24T18:34:07.569Z,6.57
2022-12-24T18:36:35.045Z,6.59
2022-12-24T18:39:02.462Z,6.60
2022-12-24T18:41:31.049Z,6.62
2022-12-24T18:43:59.422Z,6.66
2022-12-24T18:46:30.433Z,6.66
2022-12-24T18:48:59.786Z,6.67
2022-12-24T18:51:36.341Z,6.68
2022-12-24T18:54:04.977Z,6.69
2022-12-24T18:56:32.094Z,6.74
2022-12-24T18:59:02.254Z,6.76
2022-12-24T19:01:34.815Z,6.76
2022-12-24T19:04:02.965Z,6.82
2022-12-24T19:06:30.362Z,6.85
2022-12-24T19:08:59.071Z,6.88
2022-12-24T19:11:30.775Z,6.91
2022-12-24T19:13:58.494Z,6.93
2022-12-24T19:16:27.273Z,6.96
2022-12-24T19:18:54.755Z,7.01
2022-12-24T19:21:21.994Z,7.06
2022-12-24T19:23:49.315Z,7.08
2022-12-24T19:26:18.659Z,7.13
2022-12-24T19:28:46.354Z,7.16
2022-12-24T19:31:20.691Z,7.20
2022-12-24T19:33:51.230Z,7.24
2022-12-24T19:36:22.856Z,7.26
2022-12-24T19:38:49.993Z,7.33
2022-12-24T19:41:19.811Z,7.37
2022-12-24T19:43:50.617Z,7.39
2022-12-24T19:46:21.551Z,7.43
2022-12-24T19:48:55.261Z,7.48
2022-12-24T19:51:23.950Z,7.50
2022-12-24T19:53:52.424Z,7.55
2022-12-24T19:56:21.832Z,7.58
2022-12-24T19:58:49.405Z,7.59
2022-12-24T20:01:22.547Z,7.57
2022-12-24T20:03:51.291Z,7.56
2022-12-24T20:06:21.484Z,7.60
2022-12-24T20:08:49.071Z,7.61
2022-12-24T20:11:19.710Z,7.59
2022-12-24T20:13:46.670Z,7.61
2022-12-24T20:16:21.111Z,7.62
2022-12-24T20:18:57.314Z,7.59
2022-12-24T20:21:25.277Z,7.64
2022-12-24T20:23:52.460Z,7.64
2022-12-24T20:26:23.538Z,7.67
2022-12-24T20:28:50.506Z,7.70
2022-12-24T20:31:25.587Z,7.72
2022-12-24T20:33:53.458Z,7.72
2022-12-24T20:36:22.761Z,7.78
2022-12-24T20:38:50.499Z,7.78
2022-12-24T20:41:20.394Z,7.80
2022-12-24T20:43:49.010Z,7.80
2022-12-24T20:46:19.222Z,7.83
2022-12-24T20:48:46.764Z,7.81
2022-12-24T20:51:23.683Z,7.81
2022-12-24T20:53:54.111Z,7.83
2022-12-24T20:56:25.058Z,7.83
2022-12-24T20:58:52.421Z,7.84
2022-12-24T21:01:26.648Z,7.82
2022-12-24T21:03:57.302Z,7.80
2022-12-24T21:06:25.253Z,7.77
2022-12-24T21:08:53.792Z,7.77
2022-12-24T21:11:48.265Z,7.78
2022-12-24T21:14:19.484Z,7.77
2022-12-24T21:16:46.822Z,7.77
2022-12-24T21:19:23.733Z,7.76
2022-12-24T21:21:51.353Z,7.77
2022-12-24T21:24:18.159Z,7.77
2022-12-24T21:26:45.680Z,7.78
2022-12-24T21:29:12.665Z,7.78
2022-12-24T21:31:39.548Z,7.77
2022-12-24T21:34:07.163Z,7.73
2022-12-24T21:36:34.023Z,7.76
2022-12-24T21:39:01.084Z,7.78
2022-12-24T21:41:28.210Z,7.75
2022-12-24T21:43:55.248Z,7.76
2022-12-24T21:46:25.426Z,7.76
2022-12-24T21:49:12.851Z,7.74
2022-12-24T21:51:41.515Z,7.73
2022-12-24T21:54:23.304Z,7.74
2022-12-24T21:57:10.620Z,7.70
2022-12-24T21:59:37.432Z,7.69
2022-12-24T22:02:04.510Z,7.67
2022-12-24T22:04:33.409Z,7.60
2022-12-24T22:07:18.705Z,7.54
2022-12-24T22:10:03.980Z,7.47
2022-12-24T22:12:33.484Z,7.39
2022-12-24T22:15:00.418Z,7.29
2022-12-24T22:17:28.604Z,7.28
2022-12-24T22:19:55.760Z,7.25
2022-12-24T22:22:23.172Z,7.15
2022-12-24T22:24:50.129Z,7.13
2022-12-24T22:27:17.123Z,7.11
2022-12-24T22:29:44.476Z,7.11
2022-12-24T22:32:11.457Z,7.03
2022-12-24T22:34:38.384Z,7.02
2022-12-24T22:37:05.223Z,7.00
2022-12-24T22:39:32.488Z,6.99
2022-12-24T22:41:59.466Z,6.97
2022-12-24T22:44:26.417Z,6.95
2022-12-24T22:46:53.721Z,6.96
2022-12-24T22:49:20.644Z,6.94
2022-12-24T22:51:47.511Z,6.91
2022-12-24T22:54:14.576Z,6.95
2022-12-24T22:56:41.934Z,6.96
2022-12-24T22:59:12.824Z,6.93
2022-12-24T23:01:43.785Z,6.95
2022-12-24T23:04:11.953Z,6.92
2022-12-24T23:06:39.646Z,6.90
2022-12-24T23:09:10.136Z,6.91
2022-12-24T23:11:37.058Z,6.90
2022-12-24T23:14:22.369Z,6.87
2022-12-24T23:16:49.089Z,6.81
2022-12-24T23:19:16.195Z,6.85
2022-12-24T23:21:43.427Z,6.82
2022-12-24T23:24:11.445Z,6.81
2022-12-24T23:26:38.831Z,6.81
2022-12-24T23:29:05.775Z,6.75
2022-12-24T23:31:34.952Z,6.70
2022-12-24T23:34:02.381Z,6.68
2022-12-24T23:36:29.664Z,6.67
2022-12-24T23:38:57.794Z,6.61
2022-12-24T23:41:25.061Z,6.60
2022-12-24T23:43:51.977Z,6.55
2022-12-24T23:46:20.584Z,6.52
2022-12-24T23:48:47.830Z,6.52
2022-12-24T23:51:23.649Z,6.43
2022-12-24T23:53:53.396Z,6.40
2022-12-24T23:56:22.074Z,6.38
2022-12-24T23:58:49.283Z,6.37
